createdAt,value
2018-09-27T00:00:14.673Z,2.77
2018-09-27T00:02:42.908Z,3.85
2018-09-27T00:05:11.135Z,4.58
2018-09-27T00:07:40.481Z,2.33
2018-09-27T00:10:10.735Z,2.83
2018-09-27T00:12:38.958Z,2.42
2018-09-27T00:15:07.244Z,4.97
2018-09-27T00:17:38.257Z,3.15
2018-09-27T00:20:06.933Z,2.47
2018-09-27T00:22:36.042Z,2.33
2018-09-27T00:25:04.433Z,2.65
2018-09-27T00:27:32.695Z,3.27
2018-09-27T00:30:00.995Z,3.77
2018-09-27T00:32:29.229Z,3.57
2018-09-27T00:34:57.479Z,4.92
2018-09-27T00:37:25.759Z,3.08
2018-09-27T00:39:54.823Z,3.00
2018-09-27T00:42:23.024Z,4.93
2018-09-27T00:44:51.284Z,3.95
2018-09-27T00:47:19.501Z,3.40
2018-09-27T00:49:48.513Z,1.92
2018-09-27T00:52:16.819Z,3.43
2018-09-27T00:54:45.047Z,4.17
2018-09-27T00:57:13.261Z,6.03
2018-09-27T00:59:44.385Z,4.22
2018-09-27T01:02:13.471Z,3.33
2018-09-27T01:04:41.785Z,3.65
2018-09-27T01:07:09.980Z,2.70
2018-09-27T01:09:38.179Z,5.08
2018-09-27T01:12:13.898Z,2.90
2018-09-27T01:14:42.170Z,1.42
2018-09-27T01:17:10.412Z,2.13
2018-09-27T01:19:38.615Z,2.20
2018-09-27T01:22:11.093Z,2.83
2018-09-27T01:24:39.347Z,4.15
2018-09-27T01:27:07.592Z,1.97
2018-09-27T01:29:35.952Z,2.30
2018-09-27T01:32:04.225Z,2.90
2018-09-27T01:34:32.429Z,3.85
2018-09-27T01:37:00.630Z,2.23
2018-09-27T01:39:28.871Z,5.83
2018-09-27T01:42:00.002Z,2.27
2018-09-27T01:44:28.220Z,3.05
2018-09-27T01:46:56.481Z,3.27
2018-09-27T01:49:24.813Z,2.80
2018-09-27T01:51:56.286Z,2.50
2018-09-27T01:54:24.507Z,2.15
2018-09-27T01:56:52.797Z,2.50
2018-09-27T01:59:22.103Z,3.40
2018-09-27T02:01:50.360Z,2.70
2018-09-27T02:04:18.607Z,1.75
2018-09-27T02:06:46.869Z,2.93
2018-09-27T02:09:15.100Z,1.62
2018-09-27T02:11:43.443Z,1.50
2018-09-27T02:14:12.525Z,5.15
2018-09-27T02:16:40.781Z,1.75
2018-09-27T02:19:08.992Z,2.02
2018-09-27T02:21:37.200Z,2.40
2018-09-27T02:24:05.455Z,4.55
2018-09-27T02:26:33.709Z,2.85
2018-09-27T02:29:02.004Z,4.90
2018-09-27T02:31:30.308Z,3.77
2018-09-27T02:34:01.023Z,2.22
2018-09-27T02:36:29.260Z,3.60
2018-09-27T02:38:57.596Z,1.90
2018-09-27T02:41:25.847Z,2.50
2018-09-27T02:43:54.071Z,2.22
2018-09-27T02:46:23.202Z,2.08
2018-09-27T02:48:51.444Z,1.80
2018-09-27T02:51:19.678Z,2.53
2018-09-27T02:53:47.941Z,2.10
2018-09-27T02:56:17.073Z,2.50
2018-09-27T02:59:49.056Z,3.47
2018-09-27T03:02:18.009Z,3.58
2018-09-27T03:04:46.369Z,1.92
2018-09-27T03:07:14.621Z,2.40
2018-09-27T03:09:42.833Z,3.30
2018-09-27T03:12:11.098Z,2.07
2018-09-27T03:14:39.383Z,3.15
2018-09-27T03:17:07.831Z,1.77
2018-09-27T03:19:36.059Z,4.45
2018-09-27T03:22:09.262Z,2.40
2018-09-27T03:24:37.527Z,1.87
2018-09-27T03:27:06.129Z,1.30
2018-09-27T03:29:35.208Z,3.27
2018-09-27T03:32:08.031Z,2.57
2018-09-27T03:34:36.280Z,1.62
2018-09-27T03:37:04.537Z,2.97
2018-09-27T03:39:32.789Z,2.37
2018-09-27T03:42:01.020Z,1.73
2018-09-27T03:44:29.322Z,2.33
2018-09-27T03:46:57.573Z,4.80
2018-09-27T03:49:25.946Z,2.85
2018-09-27T03:51:54.181Z,2.73
2018-09-27T03:54:29.381Z,4.17
2018-09-27T03:56:57.639Z,2.17
2018-09-27T03:59:27.484Z,4.40
2018-09-27T04:01:55.744Z,2.03
2018-09-27T04:04:24.941Z,2.67
2018-09-27T04:06:53.192Z,1.70
2018-09-27T04:09:21.429Z,1.72
2018-09-27T04:11:49.628Z,2.72
2018-09-27T04:14:17.945Z,1.72
2018-09-27T04:16:46.164Z,3.00
2018-09-27T04:19:14.370Z,3.02
2018-09-27T04:21:42.635Z,4.80
2018-09-27T04:24:16.721Z,3.52
2018-09-27T04:26:44.937Z,1.50
2018-09-27T04:29:14.281Z,3.62
2018-09-27T04:31:42.567Z,2.35
2018-09-27T04:34:14.417Z,3.42
2018-09-27T04:36:42.739Z,1.40
2018-09-27T04:39:12.474Z,2.67
2018-09-27T04:41:40.713Z,1.70
2018-09-27T04:44:09.496Z,5.95
2018-09-27T04:46:39.087Z,1.80
2018-09-27T04:49:07.496Z,2.12
2018-09-27T04:51:35.738Z,2.43
2018-09-27T04:54:03.983Z,1.72
2018-09-27T04:56:32.242Z,2.40
2018-09-27T04:59:00.505Z,1.72
2018-09-27T05:01:29.270Z,2.10
2018-09-27T05:03:58.116Z,2.20
2018-09-27T05:06:26.494Z,4.77
2018-09-27T05:08:54.665Z,2.30
2018-09-27T05:11:22.919Z,2.77
2018-09-27T05:13:51.197Z,1.30
2018-09-27T05:16:22.687Z,2.37
2018-09-27T05:18:50.907Z,2.58
2018-09-27T05:21:19.192Z,6.50
2018-09-27T05:23:47.466Z,2.55
2018-09-27T05:26:15.770Z,3.57
2018-09-27T05:28:45.931Z,2.20
2018-09-27T05:31:14.198Z,2.13
2018-09-27T05:33:42.500Z,2.67
2018-09-27T05:36:10.729Z,2.33
2018-09-27T05:38:40.486Z,2.22
2018-09-27T05:41:08.708Z,1.40
2018-09-27T05:43:37.632Z,1.87
2018-09-27T05:46:06.329Z,2.20
2018-09-27T05:48:34.604Z,3.77
2018-09-27T05:51:02.869Z,3.03
2018-09-27T05:53:31.129Z,3.40
2018-09-27T05:55:59.442Z,2.73
2018-09-27T05:58:27.752Z,2.75
2018-09-27T06:00:55.988Z,2.17
2018-09-27T06:03:24.250Z,4.87
2018-09-27T06:05:52.469Z,2.50
2018-09-27T06:08:20.721Z,4.40
2018-09-27T06:10:49.344Z,3.33
2018-09-27T06:13:17.643Z,2.72
2018-09-27T06:15:45.853Z,3.07
2018-09-27T06:18:14.284Z,2.67
2018-09-27T06:20:46.246Z,2.20
2018-09-27T06:23:14.718Z,2.08
2018-09-27T06:25:42.923Z,2.03
2018-09-27T06:28:11.224Z,1.82
2018-09-27T06:30:41.966Z,5.77
2018-09-27T06:33:10.224Z,2.75
2018-09-27T06:35:38.450Z,2.13
2018-09-27T06:38:06.817Z,3.02
2018-09-27T06:40:35.067Z,1.73
2018-09-27T06:43:03.322Z,2.22
2018-09-27T06:45:31.552Z,3.10
2018-09-27T06:47:59.948Z,2.20
2018-09-27T06:50:32.301Z,1.65
2018-09-27T06:53:00.654Z,1.87
2018-09-27T06:55:29.926Z,3.60
2018-09-27T06:57:57.992Z,3.30
2018-09-27T07:00:26.271Z,1.42
2018-09-27T07:02:56.052Z,4.87
2018-09-27T07:05:24.299Z,3.37
2018-09-27T07:07:52.604Z,2.95
2018-09-27T07:10:20.815Z,4.85
2018-09-27T07:12:49.305Z,2.98
2018-09-27T07:15:17.540Z,2.77
2018-09-27T07:17:46.129Z,4.30
2018-09-27T07:20:14.405Z,3.33
2018-09-27T07:22:42.808Z,2.25
2018-09-27T07:25:11.158Z,3.02
2018-09-27T07:27:39.346Z,3.00
2018-09-27T07:30:08.509Z,3.55
2018-09-27T07:32:39.202Z,2.17
2018-09-27T07:35:08.433Z,3.50
2018-09-27T07:37:36.829Z,2.77
2018-09-27T07:40:06.352Z,5.47
2018-09-27T07:42:46.495Z,3.57
2018-09-27T07:45:14.705Z,4.27
2018-09-27T07:47:43.000Z,2.83
2018-09-27T07:50:11.247Z,3.23
2018-09-27T07:52:40.850Z,3.97
2018-09-27T07:55:10.366Z,3.06
2018-09-27T07:57:38.730Z,4.70
2018-09-27T08:00:06.990Z,1.63
2018-09-27T08:02:35.338Z,4.13
2018-09-27T08:05:03.468Z,2.67
2018-09-27T08:07:31.759Z,3.27
2018-09-27T08:09:59.978Z,2.70
2018-09-27T08:12:28.172Z,2.70
2018-09-27T08:14:57.593Z,1.80
2018-09-27T08:17:25.852Z,1.80
2018-09-27T08:19:54.100Z,2.27
2018-09-27T08:22:22.361Z,2.73
2018-09-27T08:24:50.713Z,2.87
2018-09-27T08:27:18.921Z,3.30
2018-09-27T08:29:47.629Z,2.37
2018-09-27T08:32:15.877Z,3.77
2018-09-27T08:34:48.628Z,3.50
2018-09-27T08:37:17.841Z,3.50
2018-09-27T08:39:46.123Z,2.87
2018-09-27T08:42:14.325Z,2.73
2018-09-27T08:44:46.611Z,2.30
2018-09-27T08:47:14.909Z,2.47
2018-09-27T08:49:43.204Z,3.57
2018-09-27T08:52:11.407Z,1.50
2018-09-27T08:54:39.616Z,2.07
2018-09-27T09:12:25.984Z,2.63
2018-09-27T09:14:54.256Z,2.43
2018-09-27T09:17:22.864Z,3.40
2018-09-27T09:19:51.108Z,3.63
2018-09-27T09:22:19.422Z,2.60
2018-09-27T09:24:50.845Z,2.13
2018-09-27T09:27:19.083Z,2.07
2018-09-27T09:29:47.504Z,5.03
2018-09-27T09:32:15.731Z,5.30
2018-09-27T09:34:44.116Z,2.57
2018-09-27T09:37:14.153Z,10.13
2018-09-27T09:39:42.371Z,12.63
2018-09-27T09:42:10.613Z,11.57
2018-09-27T09:44:38.830Z,14.63
2018-09-27T09:47:07.090Z,15.93
2018-09-27T09:49:35.961Z,18.80
2018-09-27T09:52:04.220Z,14.67
2018-09-27T09:54:32.453Z,13.83
2018-09-27T09:57:01.276Z,16.67
2018-09-27T09:59:30.808Z,12.57
2018-09-27T10:01:59.108Z,9.57
2018-09-27T10:04:27.709Z,5.57
2018-09-27T10:06:59.487Z,6.20
2018-09-27T10:09:27.710Z,4.70
2018-09-27T10:11:55.948Z,3.30
2018-09-27T10:14:24.271Z,2.97
2018-09-27T10:16:52.611Z,4.93
2018-09-27T10:19:20.876Z,2.50
2018-09-27T10:21:49.163Z,4.43
2018-09-27T10:24:17.440Z,2.07
2018-09-27T10:26:45.651Z,4.67
2018-09-27T10:29:14.196Z,1.70
2018-09-27T10:31:42.387Z,3.87
2018-09-27T10:34:10.671Z,2.17
2018-09-27T10:36:39.034Z,2.70
2018-09-27T10:39:09.076Z,3.47
2018-09-27T10:41:37.312Z,1.40
2018-09-27T10:44:05.576Z,2.27
2018-09-27T10:46:33.788Z,2.27
2018-09-27T10:49:05.712Z,2.47
2018-09-27T10:51:33.933Z,2.97
2018-09-27T10:54:02.231Z,3.30
2018-09-27T10:56:30.494Z,1.93
2018-09-27T10:58:58.762Z,4.03
2018-09-27T11:01:27.009Z,3.87
2018-09-27T11:03:55.970Z,4.10
2018-09-27T11:06:24.172Z,2.67
2018-09-27T11:08:52.423Z,2.00
2018-09-27T11:11:20.703Z,1.47
2018-09-27T11:13:48.935Z,1.57
2018-09-27T11:16:17.144Z,2.10
2018-09-27T11:18:45.335Z,1.93
2018-09-27T11:21:13.599Z,2.00
2018-09-27T11:23:41.824Z,2.80
2018-09-27T11:26:10.227Z,1.87
2018-09-27T11:28:43.870Z,3.50
2018-09-27T11:31:19.731Z,2.20
2018-09-27T11:33:47.997Z,2.13
2018-09-27T11:36:16.248Z,2.07
2018-09-27T11:38:44.566Z,2.93
2018-09-27T11:41:16.232Z,1.73
2018-09-27T11:43:44.468Z,3.10
2018-09-27T11:46:12.730Z,1.80
2018-09-27T11:48:40.968Z,2.37
2018-09-27T11:51:13.126Z,1.93
2018-09-27T11:53:41.403Z,2.60
2018-09-27T11:56:09.690Z,2.87
2018-09-27T11:58:37.889Z,2.50
2018-09-27T12:01:06.261Z,2.73
2018-09-27T12:03:34.508Z,1.73
2018-09-27T12:06:02.763Z,1.90
2018-09-27T12:08:30.995Z,2.00
2018-09-27T12:10:59.312Z,2.93
2018-09-27T12:13:28.818Z,2.30
2018-09-27T12:15:57.000Z,1.50
2018-09-27T12:18:25.282Z,1.37
2018-09-27T12:20:53.539Z,1.40
2018-09-27T12:23:21.765Z,1.70
2018-09-27T12:25:50.007Z,1.37
2018-09-27T12:28:18.689Z,2.43
2018-09-27T12:30:46.987Z,2.20
2018-09-27T12:33:18.852Z,1.73
2018-09-27T12:35:47.125Z,1.30
2018-09-27T12:38:15.456Z,1.37
2018-09-27T12:40:43.710Z,1.30
2018-09-27T12:43:11.908Z,1.30
2018-09-27T12:45:40.241Z,0.80
2018-09-27T12:48:08.495Z,1.00
2018-09-27T12:50:37.593Z,1.43
2018-09-27T12:53:05.982Z,2.03
2018-09-27T12:55:38.646Z,0.67
2018-09-27T12:58:08.077Z,0.87
2018-09-27T13:00:36.297Z,1.07
2018-09-27T13:03:04.561Z,1.10
2018-09-27T13:05:32.831Z,0.60
2018-09-27T13:08:01.068Z,2.43
2018-09-27T13:10:29.307Z,1.20
2018-09-27T13:12:57.624Z,2.13
2018-09-27T13:15:26.681Z,1.40
2018-09-27T13:17:54.900Z,1.03
2018-09-27T13:20:23.230Z,1.17
2018-09-27T13:22:51.563Z,0.97
2018-09-27T13:25:19.812Z,2.47
2018-09-27T13:27:48.788Z,1.80
2018-09-27T13:30:17.057Z,1.83
2018-09-27T13:32:45.333Z,1.67
2018-09-27T13:35:13.538Z,1.00
2018-09-27T13:37:43.435Z,1.23
2018-09-27T13:40:11.708Z,0.97
2018-09-27T13:42:39.973Z,1.03
2018-09-27T13:45:08.398Z,1.27
2018-09-27T13:47:37.295Z,1.10
2018-09-27T13:50:06.476Z,0.97
2018-09-27T13:52:34.709Z,0.90
2018-09-27T13:55:02.999Z,1.20
2018-09-27T13:57:31.578Z,1.13
2018-09-27T13:59:59.803Z,1.07
2018-09-27T14:02:28.043Z,2.57
2018-09-27T14:04:56.247Z,0.77
2018-09-27T14:07:24.500Z,0.50
2018-09-27T14:09:52.742Z,2.73
2018-09-27T14:12:20.998Z,1.83
2018-09-27T14:14:49.235Z,1.87
2018-09-27T14:17:17.556Z,0.73
2018-09-27T14:19:45.839Z,2.03
2018-09-27T14:22:14.105Z,1.57
2018-09-27T14:27:17.365Z,0.93
2018-09-27T14:29:48.876Z,1.00
2018-09-27T14:32:17.146Z,1.70
2018-09-27T14:34:45.414Z,2.57
2018-09-27T14:37:13.633Z,1.87
2018-09-27T14:39:41.920Z,1.03
2018-09-27T14:42:10.197Z,1.57
2018-09-27T14:44:38.383Z,1.70
2018-09-27T14:47:06.600Z,2.03
2018-09-27T14:49:39.445Z,0.90
2018-09-27T14:52:07.680Z,1.77
2018-09-27T14:54:36.046Z,1.10
2018-09-27T14:57:04.289Z,1.03
2018-09-27T14:59:34.024Z,0.97
2018-09-27T15:02:03.162Z,3.63
2018-09-27T15:04:31.315Z,2.07
2018-09-27T15:06:59.704Z,2.20
2018-09-27T15:09:28.028Z,0.90
2018-09-27T15:11:56.210Z,2.10
2018-09-27T15:14:24.454Z,2.00
2018-09-27T15:16:52.742Z,1.20
2018-09-27T15:19:20.944Z,1.30
2018-09-27T15:21:50.420Z,1.00
2018-09-27T15:24:18.687Z,1.70
2018-09-27T15:26:46.986Z,1.43
2018-09-27T15:29:15.568Z,1.57
2018-09-27T15:31:49.899Z,1.33
2018-09-27T15:34:19.460Z,0.77
2018-09-27T15:36:47.689Z,0.70
2018-09-27T15:39:15.942Z,1.83
2018-09-27T15:41:47.358Z,0.87
2018-09-27T15:44:21.988Z,1.70
2018-09-27T15:46:50.222Z,2.13
2018-09-27T15:49:18.461Z,1.73
2018-09-27T15:51:50.613Z,1.87
2018-09-27T15:54:18.869Z,1.43
2018-09-27T15:56:47.119Z,1.00
2018-09-27T15:59:15.448Z,1.43
2018-09-27T16:01:44.102Z,1.13
2018-09-27T16:04:13.976Z,2.17
2018-09-27T16:06:43.237Z,1.80
2018-09-27T16:09:12.301Z,1.93
2018-09-27T16:11:41.258Z,4.10
2018-09-27T16:14:19.292Z,0.67
2018-09-27T16:16:47.468Z,1.23
2018-09-27T16:19:15.676Z,2.07
2018-09-27T16:21:43.934Z,1.10
2018-09-27T16:24:13.033Z,2.17
2018-09-27T16:26:41.252Z,2.53
2018-09-27T16:29:09.786Z,2.57
2018-09-27T16:31:38.302Z,2.10
2018-09-27T16:34:10.929Z,3.07
2018-09-27T16:36:39.165Z,1.50
2018-09-27T16:39:08.516Z,1.23
2018-09-27T16:41:37.937Z,1.60
2018-09-27T16:44:08.373Z,1.20
2018-09-27T16:46:36.941Z,2.03
2018-09-27T16:49:05.549Z,1.87
2018-09-27T16:51:34.181Z,2.37
2018-09-27T16:54:02.430Z,1.57
2018-09-27T16:56:30.736Z,2.93
2018-09-27T16:58:58.947Z,2.40
2018-09-27T17:01:27.251Z,1.57
2018-09-27T17:04:01.379Z,3.10
2018-09-27T17:06:29.664Z,1.17
2018-09-27T17:08:57.885Z,1.83
2018-09-27T17:11:26.191Z,2.03
2018-09-27T17:13:54.409Z,1.70
2018-09-27T17:16:23.169Z,2.83
2018-09-27T17:18:51.436Z,1.83
2018-09-27T17:21:19.736Z,2.17
2018-09-27T17:23:47.973Z,1.73
2018-09-27T17:26:35.256Z,0.90
2018-09-27T17:29:03.613Z,4.70
2018-09-27T17:31:31.891Z,3.60
2018-09-27T17:34:01.526Z,1.90
2018-09-27T17:36:29.768Z,2.00
2018-09-27T17:38:58.010Z,2.13
2018-09-27T17:41:26.233Z,2.60
2018-09-27T17:43:54.591Z,2.80
2018-09-27T17:46:23.539Z,2.37
2018-09-27T17:48:51.900Z,2.93
2018-09-27T17:51:20.207Z,7.60
2018-09-27T17:53:48.424Z,2.00
2018-09-27T17:56:16.745Z,2.43
2018-09-27T17:58:45.006Z,2.63
2018-09-27T18:01:13.236Z,2.10
2018-09-27T18:03:41.488Z,1.80
2018-09-27T18:06:14.106Z,2.20
2018-09-27T18:08:42.368Z,2.07
2018-09-27T18:11:10.569Z,2.10
2018-09-27T18:13:40.481Z,3.53
2018-09-27T18:16:10.028Z,2.27
2018-09-27T18:18:38.328Z,2.77
2018-09-27T18:21:06.662Z,5.53
2018-09-27T18:23:34.940Z,2.00
2018-09-27T18:26:03.184Z,2.17
2018-09-27T18:28:31.822Z,4.27
2018-09-27T18:31:00.058Z,1.67
2018-09-27T18:33:28.384Z,1.60
2018-09-27T18:35:56.583Z,3.97
2018-09-27T18:38:25.829Z,2.23
2018-09-27T18:40:54.110Z,2.50
2018-09-27T18:43:22.368Z,2.77
2018-09-27T18:45:52.260Z,2.37
2018-09-27T18:48:20.526Z,2.90
2018-09-27T18:50:55.425Z,1.80
2018-09-27T18:53:23.803Z,2.83
2018-09-27T18:55:53.014Z,3.83
2018-09-27T18:58:21.306Z,2.37
2018-09-27T19:00:50.017Z,2.90
2018-09-27T19:03:18.295Z,2.27
2018-09-27T19:05:46.545Z,3.27
2018-09-27T19:08:17.188Z,2.77
2018-09-27T19:10:45.489Z,2.90
2018-09-27T19:13:13.757Z,2.17
2018-09-27T19:15:44.992Z,1.73
2018-09-27T19:18:16.910Z,2.03
2018-09-27T19:20:45.140Z,1.83
2018-09-27T19:23:13.350Z,1.80
2018-09-27T19:25:41.577Z,2.87
2018-09-27T19:28:09.808Z,1.73
2018-09-27T19:30:39.460Z,2.83
2018-09-27T19:33:07.778Z,3.30
2018-09-27T19:35:36.009Z,2.93
2018-09-27T19:38:04.276Z,2.80
2018-09-27T19:40:32.538Z,2.23
2018-09-27T19:43:00.851Z,2.53
2018-09-27T19:45:29.148Z,2.13
2018-09-27T19:47:57.430Z,3.90
2018-09-27T19:50:25.751Z,2.77
2018-09-27T19:52:53.993Z,1.10
2018-09-27T19:55:22.265Z,3.70
2018-09-27T19:57:53.477Z,1.13
2018-09-27T20:00:24.149Z,1.83
2018-09-27T20:02:52.472Z,1.20
2018-09-27T20:05:20.687Z,2.27
2018-09-27T20:07:48.944Z,3.73
2018-09-27T20:10:17.246Z,3.03
2018-09-27T20:12:45.685Z,2.23
2018-09-27T20:15:13.883Z,1.43
2018-09-27T20:17:42.168Z,2.23
2018-09-27T20:20:11.334Z,2.10
2018-09-27T20:22:39.593Z,2.43
2018-09-27T20:25:08.332Z,3.12
2018-09-27T20:27:36.817Z,6.17
2018-09-27T20:30:05.413Z,2.90
2018-09-27T20:32:34.291Z,3.00
2018-09-27T20:35:02.513Z,1.90
2018-09-27T20:37:30.752Z,5.77
2018-09-27T20:39:58.968Z,1.90
2018-09-27T20:42:30.421Z,3.13
2018-09-27T20:44:58.724Z,3.37
2018-09-27T20:47:27.003Z,6.33
2018-09-27T20:49:55.207Z,2.83
2018-09-27T20:52:23.437Z,1.50
2018-09-27T20:54:53.053Z,2.93
2018-09-27T20:57:21.298Z,3.23
2018-09-27T20:59:49.602Z,1.83
2018-09-27T21:02:17.880Z,2.17
2018-09-27T21:04:50.153Z,2.43
2018-09-27T21:07:18.407Z,2.43
2018-09-27T21:09:46.696Z,3.80
2018-09-27T21:12:14.908Z,4.60
2018-09-27T21:14:43.191Z,3.80
2018-09-27T21:17:11.436Z,4.43
2018-09-27T21:19:39.685Z,4.10
2018-09-27T21:22:07.946Z,8.00
2018-09-27T21:24:37.227Z,4.93
2018-09-27T21:27:05.472Z,6.27
2018-09-27T21:29:35.197Z,5.17
2018-09-27T21:32:03.513Z,5.07
2018-09-27T21:34:34.455Z,4.47
2018-09-27T21:37:03.527Z,7.20
2018-09-27T21:39:31.760Z,6.77
2018-09-27T21:41:59.979Z,6.33
2018-09-27T21:44:28.195Z,4.57
2018-09-27T21:46:56.979Z,5.43
2018-09-27T21:49:25.225Z,7.13
2018-09-27T21:51:53.525Z,7.13
2018-09-27T21:54:21.766Z,7.33
2018-09-27T21:56:50.636Z,6.37
2018-09-27T21:59:19.675Z,8.43
2018-09-27T22:01:48.012Z,7.03
2018-09-27T22:04:16.280Z,6.03
2018-09-27T22:06:53.027Z,7.67
2018-09-27T22:09:21.312Z,6.20
2018-09-27T22:11:49.534Z,5.70
2018-09-27T22:14:17.751Z,4.83
2018-09-27T22:16:47.320Z,2.90
2018-09-27T22:19:15.799Z,4.10
2018-09-27T22:21:50.615Z,11.03
2018-09-27T22:24:18.845Z,3.60
2018-09-27T22:26:47.072Z,4.67
2018-09-27T22:29:15.594Z,5.50
2018-09-27T22:31:43.856Z,4.27
2018-09-27T22:34:12.092Z,3.43
2018-09-27T22:36:42.965Z,7.43
2018-09-27T22:39:11.295Z,10.17
2018-09-27T22:41:39.523Z,11.07
2018-09-27T22:44:07.738Z,9.27
2018-09-27T22:46:35.977Z,8.63
2018-09-27T22:49:04.354Z,10.83
2018-09-27T22:51:32.681Z,10.33
2018-09-27T22:54:00.940Z,6.73
2018-09-27T22:56:29.217Z,6.30
2018-09-27T22:58:58.131Z,9.90
2018-09-27T23:01:26.711Z,8.63
2018-09-27T23:03:55.000Z,6.80
2018-09-27T23:06:23.212Z,7.05
2018-09-27T23:08:54.259Z,6.27
2018-09-27T23:11:22.552Z,5.10
2018-09-27T23:13:50.771Z,7.63
2018-09-27T23:16:18.999Z,5.10
2018-09-27T23:18:50.999Z,7.93
2018-09-27T23:21:19.261Z,8.23
2018-09-27T23:23:47.518Z,7.13
2018-09-27T23:26:15.825Z,5.27
2018-09-27T23:28:44.052Z,3.97
2018-09-27T23:31:16.013Z,5.90
2018-09-27T23:33:44.337Z,5.63
2018-09-27T23:36:12.558Z,5.83
2018-09-27T23:38:40.789Z,3.70
2018-09-27T23:41:09.029Z,5.13
2018-09-27T23:43:37.497Z,7.67
2018-09-27T23:46:06.378Z,4.47
2018-09-27T23:48:34.654Z,4.63
2018-09-27T23:53:49.816Z,5.47
2018-09-27T23:56:18.107Z,4.33
2018-09-27T23:58:46.536Z,3.73
